createdAt,value
2023-02-23T00:02:19.914Z,100964.00
2023-02-23T00:04:48.250Z,100957.00
2023-02-23T00:07:19.943Z,100972.00
2023-02-23T00:09:48.529Z,100994.00
2023-02-23T00:12:17.215Z,100971.00
2023-02-23T00:14:46.150Z,100972.00
2023-02-23T00:17:17.654Z,100971.00
2023-02-23T00:19:49.317Z,101023.00
2023-02-23T00:22:19.453Z,101018.00
2023-02-23T00:24:48.209Z,100957.00
2023-02-23T00:27:20.952Z,100971.00
2023-02-23T00:29:51.016Z,100982.00
2023-02-23T00:32:21.472Z,100972.00
2023-02-23T00:34:50.682Z,101015.00
2023-02-23T00:37:23.024Z,101003.00
2023-02-23T00:39:52.120Z,100992.00
2023-02-23T00:42:20.491Z,101007.00
2023-02-23T00:44:49.425Z,101009.00
2023-02-23T00:47:17.925Z,100961.00
2023-02-23T00:49:46.758Z,100994.00
2023-02-23T00:52:15.678Z,100981.00
2023-02-23T00:54:45.714Z,100999.00
2023-02-23T00:57:14.113Z,101014.00
2023-02-23T00:59:42.591Z,100992.00
2023-02-23T01:02:11.061Z,100986.00
2023-02-23T01:04:39.472Z,100986.00
2023-02-23T01:07:12.972Z,101019.00
2023-02-23T01:09:42.175Z,100981.00
2023-02-23T01:12:11.996Z,100997.00
2023-02-23T01:14:40.585Z,100982.00
2023-02-23T01:17:09.105Z,100984.00
2023-02-23T01:19:37.523Z,100994.00
2023-02-23T01:22:05.997Z,100998.00
2023-02-23T01:24:34.410Z,101021.00
2023-02-23T01:27:02.803Z,101006.00
2023-02-23T01:29:32.728Z,101024.00
2023-02-23T01:32:04.208Z,101026.00
2023-02-23T01:34:33.201Z,100999.00
2023-02-23T01:37:01.704Z,101004.00
2023-02-23T01:39:30.224Z,101011.00
2023-02-23T01:41:58.658Z,101011.00
2023-02-23T01:45:19.664Z,101025.00
2023-02-23T01:47:48.278Z,101011.00
2023-02-23T01:50:17.934Z,101028.00
2023-02-23T01:52:48.198Z,100985.00
2023-02-23T01:55:23.822Z,100994.00
2023-02-23T01:57:59.529Z,100979.00
2023-02-23T02:00:31.968Z,101025.00
2023-02-23T02:03:02.648Z,101006.00
2023-02-23T02:05:31.730Z,100995.00
2023-02-23T02:08:01.443Z,101001.00
2023-02-23T02:10:45.883Z,101004.00
2023-02-23T02:13:22.324Z,101022.00
2023-02-23T02:16:23.107Z,100982.00
2023-02-23T02:19:33.709Z,101024.00
2023-02-23T02:23:00.186Z,101013.00
2023-02-23T02:25:56.219Z,101000.00
2023-02-23T02:29:11.422Z,101019.00
2023-02-23T02:32:32.614Z,100998.00
2023-02-23T02:36:10.866Z,100997.00
2023-02-23T02:38:54.082Z,100989.00
2023-02-23T02:41:37.534Z,100997.00
2023-02-23T02:44:16.514Z,100991.00
2023-02-23T02:46:51.321Z,101002.00
2023-02-23T02:49:27.970Z,100961.00
2023-02-23T02:52:02.768Z,100979.00
2023-02-23T02:54:36.843Z,101013.00
2023-02-23T02:57:07.450Z,101006.00
2023-02-23T03:00:04.459Z,100987.00
2023-02-23T03:02:53.268Z,100973.00
2023-02-23T03:05:44.160Z,101004.00
2023-02-23T03:08:40.340Z,100977.00
2023-02-23T03:11:30.968Z,100999.00
2023-02-23T03:14:34.564Z,101021.00
2023-02-23T03:17:29.598Z,101011.00
2023-02-23T03:20:23.519Z,100999.00
2023-02-23T03:23:16.190Z,101015.00
2023-02-23T03:26:10.872Z,100999.00
2023-02-23T03:29:08.403Z,100992.00
2023-02-23T03:32:01.524Z,100988.00
2023-02-23T03:34:55.798Z,101016.00
2023-02-23T03:37:47.203Z,101008.00
2023-02-23T03:40:38.073Z,101026.00
2023-02-23T03:43:29.869Z,101016.00
2023-02-23T03:46:20.591Z,101005.00
2023-02-23T03:49:09.574Z,101032.00
2023-02-23T03:51:58.980Z,101011.00
2023-02-23T03:54:52.461Z,101045.00
2023-02-23T03:57:41.534Z,101006.00
2023-02-23T04:00:34.441Z,101042.00
2023-02-23T04:03:24.304Z,101013.00
2023-02-23T04:06:13.547Z,101028.00
2023-02-23T04:09:00.232Z,101013.00
2023-02-23T04:11:56.082Z,101044.00
2023-02-23T04:14:29.697Z,101054.00
2023-02-23T04:16:57.708Z,100998.00
2023-02-23T04:19:29.937Z,101029.00
2023-02-23T04:21:58.242Z,100999.00
2023-02-23T04:24:26.722Z,101043.00
2023-02-23T04:26:55.202Z,101021.00
2023-02-23T04:29:24.208Z,101033.00
2023-02-23T04:31:54.108Z,101032.00
2023-02-23T04:34:22.680Z,101055.00
2023-02-23T04:36:52.404Z,100992.00
2023-02-23T04:39:20.933Z,101009.00
2023-02-23T04:41:50.529Z,101042.00
2023-02-23T04:44:19.275Z,101068.00
2023-02-23T04:46:47.835Z,100998.00
2023-02-23T04:49:16.599Z,101041.00
2023-02-23T04:51:45.170Z,101034.00
2023-02-23T04:54:15.217Z,101038.00
2023-02-23T04:56:44.168Z,101030.00
2023-02-23T04:59:13.423Z,101043.00
2023-02-23T05:01:42.265Z,101043.00
2023-02-23T05:04:11.097Z,101047.00
2023-02-23T05:06:39.862Z,101038.00
2023-02-23T05:09:08.554Z,101047.00
2023-02-23T05:11:38.846Z,101044.00
2023-02-23T05:14:07.526Z,101046.00
2023-02-23T05:16:36.307Z,101061.00
2023-02-23T05:19:04.990Z,101039.00
2023-02-23T05:21:33.648Z,100998.00
2023-02-23T05:24:02.278Z,101049.00
2023-02-23T05:26:31.375Z,101073.00
2023-02-23T05:29:01.937Z,101009.00
2023-02-23T05:31:30.728Z,100995.00
2023-02-23T05:33:59.507Z,101076.00
2023-02-23T05:36:28.379Z,101071.00
2023-02-23T05:38:56.819Z,101050.00
2023-02-23T05:41:25.556Z,101053.00
2023-02-23T05:43:55.737Z,101043.00
2023-02-23T05:46:27.810Z,101076.00
2023-02-23T05:49:00.930Z,101061.00
2023-02-23T05:51:31.549Z,101066.00
2023-02-23T05:54:00.379Z,101045.00
2023-02-23T05:56:29.521Z,101066.00
2023-02-23T05:59:00.095Z,101082.00
2023-02-23T06:01:30.595Z,101065.00
2023-02-23T06:03:59.369Z,101076.00
2023-02-23T06:06:28.681Z,101085.00
2023-02-23T06:08:57.713Z,101044.00
2023-02-23T06:11:26.613Z,101078.00
2023-02-23T06:13:55.561Z,101100.00
2023-02-23T06:16:24.410Z,101060.00
2023-02-23T06:18:54.684Z,101063.00
2023-02-23T06:21:25.223Z,101091.00
2023-02-23T06:23:54.674Z,101063.00
2023-02-23T06:26:23.306Z,101116.00
2023-02-23T06:28:51.858Z,101091.00
2023-02-23T06:31:20.843Z,101055.00
2023-02-23T06:33:49.642Z,101065.00
2023-02-23T06:36:19.970Z,101108.00
2023-02-23T06:38:48.478Z,101089.00
2023-02-23T06:41:18.128Z,101054.00
